UAL1781 KDSM-KDEN
Flight info
| Callsign | UAL1781 |
|---|---|
| Flight time | 1h 31m |
| Altitude | 36000 |
| Route | BRWRY LAWGR4 |
| Aircraft | A320/M-SDE3FGHIRWY/LB1 |
Departure
| Time | 2026-05-06 15:46 |
|---|---|
| Airport | Des Moines International Airport (KDSM) |
Arrival
| Time | 2026-05-06 17:18 |
|---|---|
| Airport | Denver International Airport (KDEN) |
| Time | Latitude | Longitude | Altitude | Speed | Heading |
|---|---|---|---|---|---|
| 2026-05-06 15:05 | 41.53295 | -93.65051 | 967 ft | 0 kts | 87° |
| 2026-05-06 15:30 | 41.53294 | -93.65059 | 967 ft | 4 kts | 88° |
| 2026-05-06 15:30 | 41.53295 | -93.65095 | 968 ft | 4 kts | 96° |
| 2026-05-06 15:30 | 41.53300 | -93.65130 | 968 ft | 4 kts | 111° |
| 2026-05-06 15:30 | 41.53312 | -93.65158 | 966 ft | 4 kts | 151° |
| 2026-05-06 15:31 | 41.53316 | -93.65164 | 966 ft | 4 kts | 180° |
| 2026-05-06 15:31 | 41.53289 | -93.65165 | 965 ft | 4 kts | 182° |
| 2026-05-06 15:31 | 41.53267 | -93.65165 | 967 ft | 2 kts | 179° |
| 2026-05-06 15:32 | 41.53214 | -93.65164 | 967 ft | 4 kts | 179° |
| 2026-05-06 15:32 | 41.53187 | -93.65163 | 965 ft | 4 kts | 178° |
| 2026-05-06 15:32 | 41.53165 | -93.65161 | 965 ft | 4 kts | 171° |
| 2026-05-06 15:32 | 41.53142 | -93.65145 | 966 ft | 4 kts | 145° |
| 2026-05-06 15:33 | 41.53122 | -93.65121 | 961 ft | 4 kts | 135° |
| 2026-05-06 15:33 | 41.53105 | -93.65097 | 965 ft | 2 kts | 132° |
| 2026-05-06 15:33 | 41.53088 | -93.65072 | 965 ft | 4 kts | 133° |
| 2026-05-06 15:33 | 41.53069 | -93.65046 | 966 ft | 4 kts | 133° |
| 2026-05-06 15:34 | 41.53051 | -93.65020 | 965 ft | 4 kts | 133° |
| 2026-05-06 15:34 | 41.53032 | -93.64994 | 966 ft | 4 kts | 133° |
| 2026-05-06 15:34 | 41.53014 | -93.64968 | 966 ft | 3 kts | 133° |
| 2026-05-06 15:34 | 41.52993 | -93.64951 | 966 ft | 4 kts | 160° |
| 2026-05-06 15:35 | 41.52968 | -93.64955 | 964 ft | 4 kts | 200° |
| 2026-05-06 15:35 | 41.52950 | -93.64972 | 965 ft | 4 kts | 221° |
| 2026-05-06 15:35 | 41.52946 | -93.64977 | 963 ft | 0 kts | 223° |
| 2026-05-06 15:39 | 41.52944 | -93.64979 | 963 ft | 1 kts | 223° |
| 2026-05-06 15:39 | 41.52931 | -93.64995 | 962 ft | 4 kts | 223° |
| 2026-05-06 15:39 | 41.52904 | -93.65029 | 964 ft | 7 kts | 223° |
| 2026-05-06 15:40 | 41.52863 | -93.65079 | 964 ft | 9 kts | 223° |
| 2026-05-06 15:40 | 41.52815 | -93.65138 | 964 ft | 10 kts | 227° |
| 2026-05-06 15:40 | 41.52801 | -93.65236 | 964 ft | 12 kts | 269° |
| 2026-05-06 15:40 | 41.52800 | -93.65355 | 967 ft | 14 kts | 269° |
| 2026-05-06 15:41 | 41.52846 | -93.65468 | 962 ft | 15 kts | 314° |
| 2026-05-06 15:41 | 41.52921 | -93.65576 | 965 ft | 17 kts | 313° |
| 2026-05-06 15:41 | 41.53003 | -93.65694 | 968 ft | 18 kts | 313° |
| 2026-05-06 15:41 | 41.53076 | -93.65828 | 966 ft | 17 kts | 264° |
| 2026-05-06 15:42 | 41.53047 | -93.65981 | 966 ft | 12 kts | 256° |
| 2026-05-06 15:42 | 41.53079 | -93.66066 | 969 ft | 12 kts | 344° |
| 2026-05-06 15:42 | 41.53142 | -93.65999 | 967 ft | 13 kts | 53° |
| 2026-05-06 15:42 | 41.53202 | -93.65895 | 967 ft | 15 kts | 40° |
| 2026-05-06 15:43 | 41.53282 | -93.65934 | 968 ft | 13 kts | 327° |
| 2026-05-06 15:43 | 41.53345 | -93.65877 | 970 ft | 14 kts | 54° |
| 2026-05-06 15:43 | 41.53391 | -93.65756 | 969 ft | 16 kts | 102° |
| 2026-05-06 15:43 | 41.53319 | -93.65633 | 968 ft | 18 kts | 133° |
| 2026-05-06 15:44 | 41.53232 | -93.65505 | 968 ft | 20 kts | 131° |
| 2026-05-06 15:44 | 41.53268 | -93.65374 | 966 ft | 16 kts | 72° |
| 2026-05-06 15:44 | 41.53210 | -93.65245 | 967 ft | 18 kts | 133° |
| 2026-05-06 15:44 | 41.53119 | -93.65117 | 965 ft | 20 kts | 134° |
| 2026-05-06 15:45 | 41.53017 | -93.64975 | 966 ft | 22 kts | 136° |
| 2026-05-06 15:45 | 41.52933 | -93.65043 | 965 ft | 18 kts | 281° |
| 2026-05-06 15:45 | 41.53037 | -93.65221 | 963 ft | 48 kts | 312° |
| 2026-05-06 15:45 | 41.53408 | -93.65764 | 969 ft | 107 kts | 312° |
| 2026-05-06 15:46 | 41.54020 | -93.66662 | 1016 ft | 146 kts | 311° |
| 2026-05-06 15:46 | 41.54688 | -93.67652 | 1672 ft | 146 kts | 311° |
| 2026-05-06 15:46 | 41.55358 | -93.68695 | 2451 ft | 149 kts | 305° |
| 2026-05-06 15:46 | 41.55684 | -93.70037 | 3034 ft | 167 kts | 268° |
| 2026-05-06 15:47 | 41.55541 | -93.71683 | 3302 ft | 190 kts | 265° |
| 2026-05-06 15:47 | 41.55388 | -93.73543 | 3537 ft | 214 kts | 266° |
| 2026-05-06 15:47 | 41.55224 | -93.75634 | 3923 ft | 238 kts | 266° |
| 2026-05-06 15:47 | 41.55043 | -93.77921 | 4518 ft | 252 kts | 266° |
| 2026-05-06 15:48 | 41.54853 | -93.80263 | 5395 ft | 255 kts | 266° |
| 2026-05-06 15:48 | 41.54663 | -93.82601 | 6274 ft | 257 kts | 267° |
| 2026-05-06 15:48 | 41.54468 | -93.84989 | 7126 ft | 260 kts | 266° |
| 2026-05-06 15:48 | 41.54272 | -93.87393 | 8002 ft | 261 kts | 266° |
| 2026-05-06 15:49 | 41.54076 | -93.89807 | 8855 ft | 262 kts | 266° |
| 2026-05-06 15:49 | 41.53878 | -93.92236 | 9709 ft | 264 kts | 266° |
| 2026-05-06 15:49 | 41.53678 | -93.94696 | 10389 ft | 272 kts | 266° |
| 2026-05-06 15:49 | 41.53470 | -93.97281 | 10575 ft | 294 kts | 266° |
| 2026-05-06 15:50 | 41.53241 | -94.00093 | 10821 ft | 312 kts | 265° |
| 2026-05-06 15:50 | 41.53003 | -94.03002 | 11421 ft | 318 kts | 265° |
| 2026-05-06 15:50 | 41.52761 | -94.05943 | 12132 ft | 320 kts | 265° |
| 2026-05-06 15:50 | 41.52517 | -94.08897 | 12844 ft | 322 kts | 265° |
| 2026-05-06 15:51 | 41.52474 | -94.11901 | 13542 ft | 323 kts | 275° |
| 2026-05-06 15:51 | 41.52505 | -94.14889 | 14198 ft | 325 kts | 267° |
| 2026-05-06 15:51 | 41.52268 | -94.17901 | 14843 ft | 326 kts | 263° |
| 2026-05-06 15:51 | 41.51915 | -94.20904 | 15457 ft | 327 kts | 262° |
| 2026-05-06 15:52 | 41.51548 | -94.23867 | 16063 ft | 328 kts | 262° |
| 2026-05-06 15:52 | 41.51201 | -94.26880 | 16696 ft | 329 kts | 263° |
| 2026-05-06 15:52 | 41.50887 | -94.29908 | 17355 ft | 330 kts | 264° |
| 2026-05-06 15:52 | 41.50604 | -94.32946 | 18017 ft | 330 kts | 264° |
| 2026-05-06 15:53 | 41.50342 | -94.35987 | 18646 ft | 331 kts | 265° |
| 2026-05-06 15:53 | 41.50086 | -94.39045 | 19225 ft | 332 kts | 264° |
| 2026-05-06 15:53 | 41.49829 | -94.42110 | 19814 ft | 333 kts | 264° |
| 2026-05-06 15:53 | 41.49567 | -94.45189 | 20417 ft | 334 kts | 264° |
| 2026-05-06 15:54 | 41.49302 | -94.48277 | 21010 ft | 335 kts | 263° |
| 2026-05-06 15:54 | 41.49034 | -94.51373 | 21580 ft | 336 kts | 263° |
| 2026-05-06 15:54 | 41.48763 | -94.54480 | 22112 ft | 337 kts | 263° |
| 2026-05-06 15:54 | 41.48492 | -94.57565 | 22628 ft | 339 kts | 263° |
| 2026-05-06 15:55 | 41.48217 | -94.60705 | 23164 ft | 339 kts | 262° |
| 2026-05-06 15:55 | 41.47940 | -94.63853 | 23672 ft | 341 kts | 262° |
| 2026-05-06 15:55 | 41.47666 | -94.66960 | 24083 ft | 342 kts | 262° |
| 2026-05-06 15:55 | 41.47386 | -94.70140 | 24481 ft | 344 kts | 262° |
| 2026-05-06 15:56 | 41.47108 | -94.73276 | 24859 ft | 345 kts | 262° |
| 2026-05-06 15:56 | 41.46823 | -94.76488 | 25230 ft | 347 kts | 262° |
| 2026-05-06 15:56 | 41.46541 | -94.79659 | 25585 ft | 348 kts | 262° |
| 2026-05-06 15:56 | 41.46250 | -94.82896 | 25939 ft | 350 kts | 262° |
| 2026-05-06 15:57 | 41.45955 | -94.86147 | 26249 ft | 352 kts | 262° |
| 2026-05-06 15:57 | 41.45661 | -94.89383 | 26547 ft | 356 kts | 262° |
| 2026-05-06 15:57 | 41.45365 | -94.92641 | 26874 ft | 358 kts | 262° |
| 2026-05-06 15:57 | 41.45065 | -94.95959 | 27221 ft | 360 kts | 262° |
| 2026-05-06 15:58 | 41.44766 | -94.99288 | 27551 ft | 362 kts | 262° |
| 2026-05-06 15:58 | 41.44463 | -95.02636 | 27888 ft | 364 kts | 262° |
| 2026-05-06 15:58 | 41.44159 | -95.05965 | 28220 ft | 365 kts | 261° |
| 2026-05-06 15:58 | 41.43848 | -95.09351 | 28597 ft | 366 kts | 261° |
| 2026-05-06 15:59 | 41.43542 | -95.12673 | 29072 ft | 364 kts | 261° |
| 2026-05-06 15:59 | 41.43232 | -95.16031 | 29567 ft | 362 kts | 261° |
| 2026-05-06 15:59 | 41.42924 | -95.19359 | 30058 ft | 361 kts | 261° |
| 2026-05-06 15:59 | 41.42614 | -95.22676 | 30490 ft | 359 kts | 261° |
| 2026-05-06 16:00 | 41.42305 | -95.25981 | 30881 ft | 358 kts | 261° |
| 2026-05-06 16:00 | 41.41997 | -95.29270 | 31276 ft | 357 kts | 261° |
| 2026-05-06 16:00 | 41.41689 | -95.32554 | 31676 ft | 356 kts | 261° |
| 2026-05-06 16:00 | 41.41378 | -95.35836 | 32058 ft | 357 kts | 261° |
| 2026-05-06 16:01 | 41.41065 | -95.39123 | 32406 ft | 357 kts | 261° |
| 2026-05-06 16:01 | 41.40757 | -95.42357 | 32761 ft | 357 kts | 262° |
| 2026-05-06 16:01 | 41.40445 | -95.45637 | 33138 ft | 357 kts | 262° |
| 2026-05-06 16:01 | 41.40131 | -95.48917 | 33531 ft | 356 kts | 262° |
| 2026-05-06 16:02 | 41.39817 | -95.52189 | 33906 ft | 356 kts | 262° |
| 2026-05-06 16:02 | 41.39499 | -95.55481 | 34265 ft | 356 kts | 262° |
| 2026-05-06 16:02 | 41.39185 | -95.58716 | 34551 ft | 355 kts | 262° |
| 2026-05-06 16:02 | 41.38863 | -95.62008 | 34835 ft | 355 kts | 262° |
| 2026-05-06 16:03 | 41.38550 | -95.65248 | 35107 ft | 355 kts | 262° |
| 2026-05-06 16:03 | 41.38237 | -95.68518 | 35374 ft | 355 kts | 262° |
| 2026-05-06 16:03 | 41.37922 | -95.71785 | 35626 ft | 355 kts | 262° |
| 2026-05-06 16:03 | 41.37603 | -95.75049 | 35860 ft | 355 kts | 262° |
| 2026-05-06 16:04 | 41.37280 | -95.78310 | 36083 ft | 356 kts | 262° |
| 2026-05-06 16:04 | 41.36955 | -95.81589 | 36162 ft | 358 kts | 261° |
| 2026-05-06 16:04 | 41.36292 | -95.88292 | 36175 ft | 369 kts | 262° |
| 2026-05-06 16:05 | 41.35622 | -95.95056 | 36174 ft | 371 kts | 262° |
| 2026-05-06 16:05 | 41.34939 | -96.01887 | 36174 ft | 371 kts | 261° |
| 2026-05-06 16:06 | 41.34254 | -96.08697 | 36174 ft | 371 kts | 261° |
| 2026-05-06 16:06 | 41.33562 | -96.15539 | 36175 ft | 373 kts | 261° |
| 2026-05-06 16:07 | 41.32868 | -96.22348 | 36174 ft | 374 kts | 262° |
| 2026-05-06 16:07 | 41.32166 | -96.29212 | 36177 ft | 375 kts | 261° |
| 2026-05-06 16:08 | 41.31452 | -96.36088 | 36187 ft | 375 kts | 261° |
| 2026-05-06 16:08 | 41.30737 | -96.42960 | 36190 ft | 375 kts | 261° |
| 2026-05-06 16:09 | 41.30018 | -96.49832 | 36184 ft | 375 kts | 261° |
| 2026-05-06 16:09 | 41.29299 | -96.56713 | 36190 ft | 375 kts | 261° |
| 2026-05-06 16:10 | 41.28579 | -96.63593 | 36193 ft | 376 kts | 261° |
| 2026-05-06 16:10 | 41.27853 | -96.70443 | 36196 ft | 376 kts | 261° |
| 2026-05-06 16:11 | 41.27113 | -96.77338 | 36198 ft | 376 kts | 261° |
| 2026-05-06 16:11 | 41.26376 | -96.84226 | 36197 ft | 376 kts | 261° |
| 2026-05-06 16:12 | 41.25633 | -96.91120 | 36197 ft | 376 kts | 261° |
| 2026-05-06 16:12 | 41.24879 | -96.98011 | 36192 ft | 376 kts | 261° |
| 2026-05-06 16:13 | 41.24126 | -97.04853 | 36192 ft | 377 kts | 261° |
| 2026-05-06 16:13 | 41.23368 | -97.11787 | 36191 ft | 377 kts | 261° |
| 2026-05-06 16:14 | 41.22606 | -97.18695 | 36194 ft | 377 kts | 261° |
| 2026-05-06 16:14 | 41.21837 | -97.25593 | 36196 ft | 378 kts | 261° |
| 2026-05-06 16:15 | 41.21075 | -97.32453 | 36198 ft | 378 kts | 261° |
| 2026-05-06 16:15 | 41.20297 | -97.39356 | 36199 ft | 378 kts | 261° |
| 2026-05-06 16:16 | 41.19509 | -97.46265 | 36200 ft | 378 kts | 261° |
| 2026-05-06 16:16 | 41.18726 | -97.53170 | 36202 ft | 378 kts | 261° |
| 2026-05-06 16:17 | 41.17941 | -97.60074 | 36202 ft | 378 kts | 261° |
| 2026-05-06 16:17 | 41.17156 | -97.66948 | 36199 ft | 379 kts | 261° |
| 2026-05-06 16:18 | 41.16352 | -97.73859 | 36199 ft | 379 kts | 261° |
| 2026-05-06 16:18 | 41.15542 | -97.80773 | 36200 ft | 379 kts | 261° |
| 2026-05-06 16:19 | 41.14737 | -97.87704 | 36204 ft | 379 kts | 261° |
| 2026-05-06 16:19 | 41.13926 | -97.94626 | 36207 ft | 380 kts | 261° |
| 2026-05-06 16:20 | 41.13244 | -98.00396 | 36207 ft | 380 kts | 261° |
| 2026-05-06 16:20 | 41.12422 | -98.07318 | 36207 ft | 380 kts | 261° |
| 2026-05-06 16:21 | 41.11597 | -98.14250 | 36208 ft | 380 kts | 261° |
| 2026-05-06 16:21 | 41.10766 | -98.21158 | 36209 ft | 380 kts | 261° |
| 2026-05-06 16:22 | 41.09927 | -98.28114 | 36209 ft | 380 kts | 261° |
| 2026-05-06 16:22 | 41.09096 | -98.34995 | 36209 ft | 380 kts | 261° |
| 2026-05-06 16:23 | 41.08254 | -98.41913 | 36206 ft | 380 kts | 260° |
| 2026-05-06 16:23 | 41.07405 | -98.48856 | 36204 ft | 380 kts | 260° |
| 2026-05-06 16:24 | 41.06559 | -98.55765 | 36198 ft | 380 kts | 260° |
| 2026-05-06 16:24 | 41.05704 | -98.62679 | 36198 ft | 381 kts | 260° |
| 2026-05-06 16:25 | 41.04843 | -98.69621 | 36198 ft | 380 kts | 260° |
| 2026-05-06 16:25 | 41.03976 | -98.76538 | 36193 ft | 381 kts | 260° |
| 2026-05-06 16:26 | 41.03106 | -98.83417 | 36187 ft | 381 kts | 260° |
| 2026-05-06 16:26 | 41.02224 | -98.90354 | 36186 ft | 381 kts | 260° |
| 2026-05-06 16:27 | 41.01350 | -98.97287 | 36185 ft | 382 kts | 260° |
| 2026-05-06 16:27 | 41.00469 | -99.04226 | 36187 ft | 382 kts | 260° |
| 2026-05-06 16:28 | 40.99586 | -99.11121 | 36192 ft | 382 kts | 260° |
| 2026-05-06 16:28 | 40.98691 | -99.18091 | 36186 ft | 383 kts | 260° |
| 2026-05-06 16:29 | 40.97795 | -99.25040 | 36185 ft | 383 kts | 259° |
| 2026-05-06 16:29 | 40.96894 | -99.31954 | 36156 ft | 383 kts | 260° |
| 2026-05-06 16:30 | 40.96139 | -99.37745 | 36175 ft | 383 kts | 260° |
| 2026-05-06 16:30 | 40.95075 | -99.45865 | 36186 ft | 383 kts | 259° |
| 2026-05-06 16:31 | 40.94166 | -99.52761 | 36191 ft | 383 kts | 259° |
| 2026-05-06 16:31 | 40.93252 | -99.59707 | 36195 ft | 383 kts | 259° |
| 2026-05-06 16:32 | 40.92327 | -99.66663 | 36197 ft | 384 kts | 259° |
| 2026-05-06 16:32 | 40.91388 | -99.73661 | 36201 ft | 384 kts | 259° |
| 2026-05-06 16:33 | 40.90451 | -99.80611 | 36202 ft | 384 kts | 259° |
| 2026-05-06 16:34 | 40.89036 | -99.91054 | 36196 ft | 385 kts | 259° |
| 2026-05-06 16:34 | 40.88084 | -99.98030 | 36196 ft | 386 kts | 259° |
| 2026-05-06 16:35 | 40.87132 | -100.05016 | 36197 ft | 386 kts | 259° |
| 2026-05-06 16:35 | 40.86178 | -100.11969 | 36199 ft | 387 kts | 259° |
| 2026-05-06 16:36 | 40.85214 | -100.18972 | 36200 ft | 387 kts | 259° |
| 2026-05-06 16:36 | 40.84246 | -100.25968 | 36191 ft | 388 kts | 259° |
| 2026-05-06 16:37 | 40.83265 | -100.32989 | 36196 ft | 388 kts | 259° |
| 2026-05-06 16:37 | 40.82284 | -100.40009 | 36199 ft | 389 kts | 259° |
| 2026-05-06 16:38 | 40.81300 | -100.47043 | 36203 ft | 389 kts | 259° |
| 2026-05-06 16:38 | 40.80301 | -100.54090 | 36212 ft | 390 kts | 259° |
| 2026-05-06 16:39 | 40.79299 | -100.61124 | 36201 ft | 390 kts | 259° |
| 2026-05-06 16:39 | 40.78277 | -100.68178 | 36201 ft | 391 kts | 258° |
| 2026-05-06 16:40 | 40.77108 | -100.75195 | 36205 ft | 391 kts | 257° |
| 2026-05-06 16:40 | 40.75880 | -100.82179 | 36213 ft | 391 kts | 257° |
| 2026-05-06 16:41 | 40.74665 | -100.89188 | 36216 ft | 391 kts | 257° |
| 2026-05-06 16:41 | 40.73466 | -100.96190 | 36207 ft | 391 kts | 257° |
| 2026-05-06 16:42 | 40.72266 | -101.03198 | 36205 ft | 391 kts | 257° |
| 2026-05-06 16:42 | 40.71056 | -101.10200 | 36189 ft | 392 kts | 257° |
| 2026-05-06 16:43 | 40.69846 | -101.17191 | 36168 ft | 396 kts | 257° |
| 2026-05-06 16:43 | 40.68607 | -101.24302 | 36168 ft | 399 kts | 257° |
| 2026-05-06 16:44 | 40.67352 | -101.31435 | 36182 ft | 401 kts | 258° |
| 2026-05-06 16:44 | 40.66085 | -101.38642 | 36167 ft | 405 kts | 257° |
| 2026-05-06 16:45 | 40.64804 | -101.45900 | 36170 ft | 408 kts | 257° |
| 2026-05-06 16:45 | 40.63503 | -101.53209 | 36173 ft | 411 kts | 257° |
| 2026-05-06 16:46 | 40.62191 | -101.60560 | 36180 ft | 412 kts | 257° |
| 2026-05-06 16:46 | 40.60878 | -101.67922 | 36181 ft | 413 kts | 257° |
| 2026-05-06 16:47 | 40.59559 | -101.75254 | 36184 ft | 414 kts | 257° |
| 2026-05-06 16:47 | 40.58232 | -101.82651 | 36190 ft | 415 kts | 257° |
| 2026-05-06 16:48 | 40.56895 | -101.90045 | 36199 ft | 416 kts | 257° |
| 2026-05-06 16:48 | 40.55545 | -101.97437 | 36209 ft | 416 kts | 257° |
| 2026-05-06 16:49 | 40.54181 | -102.04844 | 36208 ft | 416 kts | 257° |
| 2026-05-06 16:49 | 40.52817 | -102.12206 | 36207 ft | 417 kts | 257° |
| 2026-05-06 16:50 | 40.51426 | -102.19660 | 36212 ft | 418 kts | 257° |
| 2026-05-06 16:50 | 40.50033 | -102.27077 | 36221 ft | 418 kts | 257° |
| 2026-05-06 16:51 | 40.48643 | -102.34504 | 36212 ft | 418 kts | 257° |
| 2026-05-06 16:51 | 40.47246 | -102.41910 | 36209 ft | 419 kts | 257° |
| 2026-05-06 16:52 | 40.45845 | -102.49363 | 36116 ft | 422 kts | 257° |
| 2026-05-06 16:52 | 40.45135 | -102.53123 | 35226 ft | 427 kts | 257° |
| 2026-05-06 16:52 | 40.44419 | -102.56899 | 34633 ft | 422 kts | 256° |
| 2026-05-06 16:52 | 40.43709 | -102.60611 | 34019 ft | 417 kts | 256° |
| 2026-05-06 16:53 | 40.43232 | -102.63105 | 33497 ft | 416 kts | 256° |
| 2026-05-06 16:53 | 40.42294 | -102.67985 | 32372 ft | 416 kts | 256° |
| 2026-05-06 16:53 | 40.41582 | -102.71681 | 31570 ft | 416 kts | 256° |
| 2026-05-06 16:53 | 40.40874 | -102.75363 | 31199 ft | 417 kts | 256° |
| 2026-05-06 16:54 | 40.40403 | -102.77815 | 30923 ft | 419 kts | 256° |
| 2026-05-06 16:54 | 40.39677 | -102.81590 | 30518 ft | 423 kts | 257° |
| 2026-05-06 16:54 | 40.38951 | -102.85347 | 30075 ft | 426 kts | 256° |
| 2026-05-06 16:54 | 40.38217 | -102.89124 | 29648 ft | 427 kts | 256° |
| 2026-05-06 16:55 | 40.37480 | -102.92902 | 29236 ft | 427 kts | 256° |
| 2026-05-06 16:55 | 40.36753 | -102.96633 | 28829 ft | 428 kts | 256° |
| 2026-05-06 16:55 | 40.36016 | -103.00414 | 28412 ft | 427 kts | 256° |
| 2026-05-06 16:55 | 40.35283 | -103.04178 | 28000 ft | 425 kts | 256° |
| 2026-05-06 16:56 | 40.34555 | -103.07912 | 27595 ft | 421 kts | 256° |
| 2026-05-06 16:56 | 40.33831 | -103.11622 | 27192 ft | 418 kts | 256° |
| 2026-05-06 16:56 | 40.33114 | -103.15300 | 26754 ft | 416 kts | 256° |
| 2026-05-06 16:56 | 40.32399 | -103.18967 | 26361 ft | 414 kts | 256° |
| 2026-05-06 16:57 | 40.31688 | -103.22608 | 25959 ft | 411 kts | 256° |
| 2026-05-06 16:57 | 40.30980 | -103.26215 | 25563 ft | 408 kts | 256° |
| 2026-05-06 16:57 | 40.30273 | -103.29798 | 25171 ft | 405 kts | 256° |
| 2026-05-06 16:57 | 40.29567 | -103.33352 | 24783 ft | 401 kts | 256° |
| 2026-05-06 16:58 | 40.28866 | -103.36874 | 24397 ft | 398 kts | 256° |
| 2026-05-06 16:58 | 40.28169 | -103.40369 | 24011 ft | 395 kts | 255° |
| 2026-05-06 16:58 | 40.27476 | -103.43838 | 23606 ft | 392 kts | 255° |
| 2026-05-06 16:58 | 40.26786 | -103.47285 | 23211 ft | 391 kts | 255° |
| 2026-05-06 16:59 | 40.26095 | -103.50730 | 22825 ft | 390 kts | 255° |
| 2026-05-06 16:59 | 40.25402 | -103.54167 | 22465 ft | 390 kts | 255° |
| 2026-05-06 16:59 | 40.24710 | -103.57598 | 22087 ft | 389 kts | 255° |
| 2026-05-06 16:59 | 40.24025 | -103.61018 | 21724 ft | 388 kts | 256° |
| 2026-05-06 17:00 | 40.23351 | -103.64434 | 21357 ft | 387 kts | 256° |
| 2026-05-06 17:00 | 40.22689 | -103.67799 | 21001 ft | 386 kts | 256° |
| 2026-05-06 17:00 | 40.22009 | -103.71246 | 20631 ft | 386 kts | 256° |
| 2026-05-06 17:00 | 40.21348 | -103.74596 | 20280 ft | 385 kts | 256° |
| 2026-05-06 17:01 | 40.20673 | -103.77995 | 19918 ft | 384 kts | 256° |
| 2026-05-06 17:01 | 40.19998 | -103.81376 | 19639 ft | 383 kts | 255° |
| 2026-05-06 17:01 | 40.19319 | -103.84757 | 19508 ft | 384 kts | 255° |
| 2026-05-06 17:01 | 40.18640 | -103.88134 | 19338 ft | 383 kts | 256° |
| 2026-05-06 17:02 | 40.17785 | -103.91442 | 19162 ft | 384 kts | 244° |
| 2026-05-06 17:02 | 40.16438 | -103.94475 | 18909 ft | 384 kts | 240° |
| 2026-05-06 17:02 | 40.15039 | -103.97456 | 18676 ft | 384 kts | 239° |
| 2026-05-06 17:02 | 40.13628 | -104.00422 | 18425 ft | 382 kts | 239° |
| 2026-05-06 17:03 | 40.12264 | -104.03272 | 18221 ft | 355 kts | 239° |
| 2026-05-06 17:03 | 40.11005 | -104.05904 | 18079 ft | 329 kts | 239° |
| 2026-05-06 17:03 | 40.09850 | -104.08332 | 17731 ft | 312 kts | 239° |
| 2026-05-06 17:03 | 40.08741 | -104.10671 | 17540 ft | 292 kts | 240° |
| 2026-05-06 17:04 | 40.07697 | -104.12879 | 17243 ft | 279 kts | 240° |
| 2026-05-06 17:04 | 40.06683 | -104.15023 | 17091 ft | 277 kts | 240° |
| 2026-05-06 17:04 | 40.05662 | -104.17176 | 16791 ft | 280 kts | 240° |
| 2026-05-06 17:04 | 40.04631 | -104.19345 | 16434 ft | 280 kts | 240° |
| 2026-05-06 17:05 | 40.03609 | -104.21494 | 16108 ft | 278 kts | 239° |
| 2026-05-06 17:05 | 40.02589 | -104.23633 | 15789 ft | 277 kts | 239° |
| 2026-05-06 17:05 | 40.01573 | -104.25767 | 15472 ft | 276 kts | 239° |
| 2026-05-06 17:05 | 40.00560 | -104.27894 | 15161 ft | 276 kts | 239° |
| 2026-05-06 17:06 | 39.99548 | -104.30017 | 14845 ft | 275 kts | 239° |
| 2026-05-06 17:06 | 39.98548 | -104.32117 | 14533 ft | 274 kts | 240° |
| 2026-05-06 17:06 | 39.97540 | -104.34228 | 14220 ft | 274 kts | 240° |
| 2026-05-06 17:06 | 39.96534 | -104.36332 | 13895 ft | 273 kts | 240° |
| 2026-05-06 17:07 | 39.95528 | -104.38433 | 13564 ft | 273 kts | 240° |
| 2026-05-06 17:07 | 39.94527 | -104.40525 | 13247 ft | 271 kts | 240° |
| 2026-05-06 17:07 | 39.93540 | -104.42585 | 12937 ft | 270 kts | 239° |
| 2026-05-06 17:07 | 39.92545 | -104.44664 | 12609 ft | 269 kts | 239° |
| 2026-05-06 17:08 | 39.91515 | -104.46703 | 12285 ft | 270 kts | 232° |
| 2026-05-06 17:08 | 39.90149 | -104.48380 | 11954 ft | 270 kts | 216° |
| 2026-05-06 17:08 | 39.88483 | -104.49495 | 11644 ft | 270 kts | 199° |
| 2026-05-06 17:08 | 39.86648 | -104.49959 | 11380 ft | 267 kts | 182° |
| 2026-05-06 17:09 | 39.84791 | -104.49979 | 11284 ft | 268 kts | 181° |
| 2026-05-06 17:09 | 39.82920 | -104.50008 | 11171 ft | 269 kts | 181° |
| 2026-05-06 17:09 | 39.81048 | -104.50039 | 11059 ft | 269 kts | 181° |
| 2026-05-06 17:09 | 39.79180 | -104.50067 | 10949 ft | 270 kts | 180° |
| 2026-05-06 17:10 | 39.77262 | -104.50088 | 10784 ft | 279 kts | 180° |
| 2026-05-06 17:10 | 39.75347 | -104.50104 | 10461 ft | 279 kts | 180° |
| 2026-05-06 17:10 | 39.73410 | -104.50116 | 10140 ft | 278 kts | 180° |
| 2026-05-06 17:10 | 39.71478 | -104.50125 | 9803 ft | 277 kts | 180° |
| 2026-05-06 17:11 | 39.69553 | -104.50132 | 9454 ft | 276 kts | 180° |
| 2026-05-06 17:11 | 39.67632 | -104.50141 | 9106 ft | 275 kts | 180° |
| 2026-05-06 17:11 | 39.65738 | -104.50150 | 8981 ft | 266 kts | 179° |
| 2026-05-06 17:11 | 39.63934 | -104.50158 | 9002 ft | 253 kts | 180° |
| 2026-05-06 17:12 | 39.62194 | -104.50352 | 8990 ft | 251 kts | 198° |
| 2026-05-06 17:12 | 39.60683 | -104.51494 | 8663 ft | 255 kts | 227° |
| 2026-05-06 17:12 | 39.59806 | -104.53461 | 8294 ft | 254 kts | 257° |
| 2026-05-06 17:12 | 39.59554 | -104.55696 | 8010 ft | 251 kts | 266° |
| 2026-05-06 17:13 | 39.59416 | -104.57929 | 7980 ft | 248 kts | 267° |
| 2026-05-06 17:13 | 39.59300 | -104.60165 | 7987 ft | 249 kts | 269° |
| 2026-05-06 17:13 | 39.59621 | -104.62322 | 7985 ft | 244 kts | 299° |
| 2026-05-06 17:13 | 39.60732 | -104.63936 | 7984 ft | 241 kts | 329° |
| 2026-05-06 17:14 | 39.62214 | -104.64960 | 7987 ft | 242 kts | 336° |
| 2026-05-06 17:14 | 39.63764 | -104.65869 | 7986 ft | 242 kts | 339° |
| 2026-05-06 17:14 | 39.65377 | -104.66296 | 7987 ft | 240 kts | 0° |
| 2026-05-06 17:14 | 39.67048 | -104.66267 | 7990 ft | 241 kts | 2° |
| 2026-05-06 17:15 | 39.68727 | -104.66226 | 7988 ft | 241 kts | 1° |
| 2026-05-06 17:15 | 39.70404 | -104.66202 | 7955 ft | 242 kts | 1° |
| 2026-05-06 17:15 | 39.72094 | -104.66182 | 7672 ft | 242 kts | 1° |
| 2026-05-06 17:15 | 39.73798 | -104.66162 | 7353 ft | 242 kts | 1° |
| 2026-05-06 17:16 | 39.75460 | -104.66142 | 7045 ft | 241 kts | 1° |
| 2026-05-06 17:16 | 39.77138 | -104.66122 | 6747 ft | 241 kts | 2° |
| 2026-05-06 17:16 | 39.78810 | -104.66102 | 6373 ft | 240 kts | 1° |
| 2026-05-06 17:16 | 39.80465 | -104.66083 | 5957 ft | 231 kts | 2° |
| 2026-05-06 17:17 | 39.81996 | -104.66066 | 5644 ft | 210 kts | 2° |
| 2026-05-06 17:17 | 39.83391 | -104.66062 | 5368 ft | 178 kts | 7° |
| 2026-05-06 17:17 | 39.84386 | -104.66032 | 5366 ft | 101 kts | 1° |
| 2026-05-06 17:17 | 39.84845 | -104.66032 | 5364 ft | 50 kts | 0° |
| 2026-05-06 17:18 | 39.85131 | -104.66058 | 5363 ft | 32 kts | 340° |
| 2026-05-06 17:18 | 39.85276 | -104.66148 | 5363 ft | 14 kts | 330° |
| 2026-05-06 17:18 | 39.85296 | -104.66162 | 5365 ft | 0 kts | 330° |
| 2026-05-06 17:19 | 39.85308 | -104.66171 | 5363 ft | 6 kts | 331° |
| 2026-05-06 17:19 | 39.85369 | -104.66211 | 5365 ft | 14 kts | 337° |
| 2026-05-06 17:19 | 39.85487 | -104.66234 | 5364 ft | 21 kts | 0° |
| 2026-05-06 17:19 | 39.85640 | -104.66236 | 5365 ft | 17 kts | 350° |
| 2026-05-06 17:20 | 39.85678 | -104.66328 | 5366 ft | 11 kts | 271° |
| 2026-05-06 17:20 | 39.85679 | -104.66414 | 5364 ft | 8 kts | 271° |
| 2026-05-06 17:20 | 39.85683 | -104.66472 | 5366 ft | 5 kts | 285° |
| 2026-05-06 17:20 | 39.85680 | -104.66505 | 5366 ft | 3 kts | 251° |
| 2026-05-06 17:21 | 39.85669 | -104.66537 | 5365 ft | 5 kts | 244° |
| 2026-05-06 17:21 | 39.85660 | -104.66618 | 5366 ft | 14 kts | 269° |
| 2026-05-06 17:21 | 39.85661 | -104.66755 | 5366 ft | 14 kts | 274° |
| 2026-05-06 17:21 | 39.85719 | -104.66832 | 5365 ft | 11 kts | 315° |
| 2026-05-06 17:22 | 39.85731 | -104.66910 | 5366 ft | 8 kts | 271° |
| 2026-05-06 17:22 | 39.85732 | -104.66987 | 5366 ft | 9 kts | 271° |
| 2026-05-06 17:22 | 39.85737 | -104.67064 | 5364 ft | 5 kts | 291° |
| 2026-05-06 17:22 | 39.85770 | -104.67080 | 5364 ft | 6 kts | 0° |
| 2026-05-06 17:23 | 39.85807 | -104.67080 | 5364 ft | 2 kts | 0° |
| 2026-05-06 17:23 | 39.85809 | -104.67080 | 5364 ft | 0 kts | 0° |